Accueil
Images satellite Prévisions 15 joursClimatMétéo marine Cyclones Foudre AéroportsFAQ Actualités A propos
Météo : Europe Afrique Amérique du Nord Amérique du Sud Asie Australie-Océanie Autres
Langues Contact

Bergerac, France

Roumanière

latitude: 44-49N, longitude: 000-31E, altitude: 51 m


METAR: LFBE 311930Z AUTO 24003KT 9999 NSC 22/16 Q1013
short-TAF: LFBE 311400Z 3115/3124 28008KT CAVOK
long-TAF: périmé (51741 heures)

Heure: 21:35 (19:35 UTC)

Observation

Le bulletin a été fait il y a 5 minutes, à 19:30 UTC  
Vent 03 kt de ouest/sud-ouest
Température 22°C
Humidité 69%
Pression 1013 hPa
Visibilité 10 km ou plus

Changer d'unités

Prévision

Le bulletin a été fait il y a 5 heures et 20 minutes, à 14:15 UTC  
Prévision valable du 31 à 15 UTC au 31 à 24 UTC
Vent 08 kt de ouest
Visibilité 10 km ou plus
pas de nuages en-dessous de 1500 mètres et pas de cumulonimbus.
Les informations qui figurent sur ce site font l'objet d'une clause de non-responsabilité
Météo : Europe Afrique Amérique du Nord Amérique du Sud Asie Australie-Océanie Autres
Images satellite Prévisions 15 joursClimatMétéo marine Cyclones Foudre AéroportsFAQ Langues Contact Actualités A propos